createdAt,value
2022-08-19T00:02:59.021Z,67.46
2022-08-19T00:06:00.988Z,67.70
2022-08-19T00:09:06.043Z,67.17
2022-08-19T00:12:08.230Z,67.64
2022-08-19T00:15:13.726Z,67.55
2022-08-19T00:18:15.742Z,67.57
2022-08-19T00:21:17.940Z,67.76
2022-08-19T00:24:21.034Z,68.13
2022-08-19T00:27:25.102Z,67.79
2022-08-19T00:30:31.557Z,68.19
2022-08-19T00:33:34.489Z,68.09
2022-08-19T00:36:36.553Z,68.22
2022-08-19T00:39:38.827Z,67.89
2022-08-19T00:42:42.190Z,68.30
2022-08-19T00:45:44.916Z,67.95
2022-08-19T00:48:46.882Z,68.18
2022-08-19T00:51:53.264Z,68.90
2022-08-19T00:54:58.352Z,68.58
2022-08-19T00:58:11.538Z,69.06
2022-08-19T01:02:09.762Z,68.86
2022-08-19T01:05:19.724Z,68.90
2022-08-19T01:08:22.360Z,68.97
2022-08-19T01:11:24.519Z,69.04
2022-08-19T01:14:27.188Z,68.92
2022-08-19T01:17:29.285Z,68.69
2022-08-19T01:20:31.689Z,69.44
2022-08-19T01:23:45.760Z,69.34
2022-08-19T01:26:48.725Z,69.39
2022-08-19T01:29:51.044Z,69.16
2022-08-19T01:32:54.498Z,69.46
2022-08-19T01:36:08.550Z,69.97
2022-08-19T01:39:13.900Z,70.22
2022-08-19T01:42:15.928Z,69.60
2022-08-19T01:45:20.264Z,69.35
2022-08-19T01:48:23.141Z,69.85
2022-08-19T01:51:25.414Z,69.69
2022-08-19T01:54:28.091Z,69.65
2022-08-19T01:57:30.389Z,69.82
2022-08-19T02:00:33.757Z,70.28
2022-08-19T02:03:35.918Z,70.18
2022-08-19T02:06:38.577Z,70.16
2022-08-19T02:09:40.661Z,69.79
2022-08-19T02:12:42.978Z,70.12
2022-08-19T02:15:45.632Z,70.08
2022-08-19T02:18:51.644Z,70.83
2022-08-19T02:21:53.724Z,70.39
2022-08-19T02:24:56.722Z,70.46
2022-08-19T02:27:58.845Z,70.64
2022-08-19T02:31:01.960Z,70.52
2022-08-19T02:34:04.104Z,70.61
2022-08-19T02:37:06.569Z,70.51
2022-08-19T02:40:12.515Z,70.70
2022-08-19T02:43:14.870Z,70.13
2022-08-19T02:46:22.248Z,69.91
2022-08-19T02:49:24.253Z,69.91
2022-08-19T02:52:26.658Z,69.49
2022-08-19T02:55:28.803Z,69.55
2022-08-19T02:58:30.872Z,69.92
2022-08-19T03:01:58.195Z,69.90
2022-08-19T03:05:00.330Z,69.92
2022-08-19T03:08:02.728Z,69.69
2022-08-19T03:11:05.770Z,69.55
2022-08-19T03:14:09.689Z,69.65
2022-08-19T03:17:11.722Z,69.60
2022-08-19T03:20:14.099Z,69.71
2022-08-19T03:23:17.755Z,69.76
2022-08-19T03:26:19.838Z,69.67
2022-08-19T03:29:30.747Z,69.91
2022-08-19T03:32:33.838Z,69.81
2022-08-19T03:35:40.046Z,70.08
2022-08-19T03:38:45.615Z,70.49
2022-08-19T03:42:38.607Z,70.91
2022-08-19T03:45:13.502Z,71.34
2022-08-19T03:48:17.944Z,71.13
2022-08-19T03:51:30.813Z,71.09
2022-08-19T03:54:33.219Z,71.15
2022-08-19T03:57:35.783Z,71.23
2022-08-19T04:00:38.027Z,71.21
2022-08-19T04:03:41.502Z,70.90
2022-08-19T04:06:44.634Z,71.11
2022-08-19T04:09:46.740Z,71.07
2022-08-19T04:12:48.775Z,71.19
2022-08-19T04:15:51.209Z,71.33
2022-08-19T04:18:53.328Z,71.50
2022-08-19T04:21:55.688Z,71.41
2022-08-19T04:24:57.703Z,71.32
2022-08-19T04:27:59.684Z,71.33
2022-08-19T04:31:01.764Z,71.00
2022-08-19T04:34:09.384Z,70.57
2022-08-19T04:37:13.882Z,70.75
2022-08-19T04:40:34.600Z,70.85
2022-08-19T04:43:39.357Z,70.32
2022-08-19T04:46:51.033Z,70.18
2022-08-19T04:49:53.815Z,70.05
2022-08-19T04:52:57.430Z,70.27
2022-08-19T04:56:04.963Z,70.15
2022-08-19T04:59:07.098Z,69.78
2022-08-19T05:02:10.362Z,70.13
2022-08-19T05:05:13.648Z,70.14
2022-08-19T05:08:30.919Z,69.82
2022-08-19T05:11:40.170Z,70.03
2022-08-19T05:14:42.514Z,70.17
2022-08-19T05:18:04.512Z,70.63
2022-08-19T05:21:27.748Z,71.27
2022-08-19T05:24:30.645Z,71.31
2022-08-19T05:27:33.994Z,71.24
2022-08-19T05:30:46.810Z,71.23
2022-08-19T05:33:51.220Z,71.28
2022-08-19T05:36:59.299Z,70.54
2022-08-19T05:40:01.839Z,70.15
2022-08-19T05:43:06.388Z,69.50
2022-08-19T05:46:09.850Z,68.94
2022-08-19T05:49:11.911Z,68.46
2022-08-19T05:52:19.018Z,68.07
2022-08-19T05:55:24.882Z,67.80
2022-08-19T05:58:28.123Z,68.27
2022-08-19T06:01:30.466Z,67.57
2022-08-19T06:04:53.080Z,67.51
2022-08-19T06:07:55.508Z,67.37
2022-08-19T06:10:57.905Z,67.28
2022-08-19T06:14:04.288Z,66.65
2022-08-19T06:17:07.415Z,66.75
2022-08-19T06:20:13.101Z,66.04
2022-08-19T06:23:16.251Z,66.11
2022-08-19T06:26:20.505Z,65.93
2022-08-19T06:29:26.136Z,65.87
2022-08-19T06:32:28.312Z,66.11
2022-08-19T06:35:30.801Z,66.17
2022-08-19T06:38:34.642Z,65.97
2022-08-19T06:41:47.125Z,65.61
2022-08-19T06:44:53.296Z,65.13
2022-08-19T06:47:57.123Z,64.62
2022-08-19T06:50:59.282Z,64.17
2022-08-19T06:54:03.291Z,63.82
2022-08-19T06:57:05.450Z,63.52
2022-08-19T07:00:13.039Z,62.32
2022-08-19T07:03:15.451Z,61.73
2022-08-19T07:06:43.690Z,61.35
2022-08-19T07:09:44.446Z,61.19
2022-08-19T07:12:56.468Z,61.08
2022-08-19T07:15:58.511Z,60.90
2022-08-19T07:19:00.627Z,60.47
2022-08-19T07:22:19.204Z,59.75
2022-08-19T07:25:32.297Z,58.64
2022-08-19T07:28:35.379Z,58.48
2022-08-19T07:31:38.698Z,58.02
2022-08-19T07:34:40.848Z,56.85
2022-08-19T07:37:45.618Z,57.10
2022-08-19T07:40:47.689Z,57.31
2022-08-19T07:43:50.520Z,56.25
2022-08-19T07:46:56.921Z,54.78
2022-08-19T07:49:58.942Z,53.59
2022-08-19T07:53:01.033Z,54.09
2022-08-19T07:56:05.421Z,53.87
2022-08-19T07:59:07.558Z,52.82
2022-08-19T08:02:10.240Z,51.35
2022-08-19T08:05:32.496Z,50.20
2022-08-19T08:08:54.440Z,49.53
2022-08-19T08:12:33.194Z,48.29
2022-08-19T08:15:29.400Z,48.22
2022-08-19T08:18:32.396Z,47.57
2022-08-19T08:21:35.352Z,47.54
2022-08-19T08:24:37.366Z,46.81
2022-08-19T08:27:44.450Z,46.91
2022-08-19T08:30:50.765Z,46.77
2022-08-19T08:33:53.070Z,47.28
2022-08-19T08:36:55.108Z,47.15
2022-08-19T08:39:57.350Z,46.74
2022-08-19T08:43:23.259Z,46.87
2022-08-19T08:46:39.939Z,45.23
2022-08-19T08:49:55.001Z,44.30
2022-08-19T08:52:58.545Z,44.06
2022-08-19T08:56:04.116Z,43.25
2022-08-19T08:59:21.396Z,42.95
2022-08-19T09:02:23.665Z,42.01
2022-08-19T09:05:48.331Z,41.66
2022-08-19T09:09:00.730Z,41.60
2022-08-19T09:12:35.520Z,42.04
2022-08-19T09:15:46.060Z,41.65
2022-08-19T09:18:55.967Z,40.82
2022-08-19T09:21:58.021Z,39.60
2022-08-19T09:25:00.937Z,38.78
2022-08-19T09:28:15.180Z,100.00
2022-08-19T09:31:28.121Z,100.00
2022-08-19T09:34:30.615Z,100.00
2022-08-19T09:37:40.439Z,100.00
2022-08-19T09:40:42.682Z,100.00
2022-08-19T09:43:53.383Z,100.00
2022-08-19T09:46:55.524Z,100.00
2022-08-19T09:49:58.694Z,100.00
2022-08-19T09:53:00.790Z,100.00
2022-08-19T09:56:04.293Z,100.00
2022-08-19T09:59:06.457Z,100.00
2022-08-19T10:02:10.677Z,100.00
2022-08-19T10:05:31.416Z,100.00
2022-08-19T10:08:37.530Z,100.00
2022-08-19T10:11:54.625Z,100.00
2022-08-19T10:14:57.391Z,100.00
2022-08-19T10:18:00.424Z,100.00
2022-08-19T10:21:11.662Z,100.00
2022-08-19T10:24:14.002Z,100.00
2022-08-19T10:27:16.410Z,100.00
2022-08-19T10:30:20.205Z,100.00
2022-08-19T10:33:38.935Z,100.00
2022-08-19T10:36:52.278Z,100.00
2022-08-19T10:39:58.745Z,100.00
2022-08-19T10:43:00.783Z,100.00
2022-08-19T10:46:02.855Z,100.00
2022-08-19T10:49:06.675Z,100.00
2022-08-19T10:52:32.275Z,100.00
2022-08-19T10:55:53.205Z,100.00
2022-08-19T10:58:55.413Z,100.00
2022-08-19T11:02:02.332Z,100.00
2022-08-19T11:05:05.150Z,100.00
2022-08-19T11:08:23.845Z,100.00
2022-08-19T11:11:26.241Z,100.00
2022-08-19T11:14:32.205Z,100.00
2022-08-19T11:17:37.183Z,100.00
2022-08-19T11:20:39.331Z,100.00
2022-08-19T11:23:42.075Z,100.00
2022-08-19T11:26:46.121Z,100.00
2022-08-19T11:29:48.620Z,100.00
2022-08-19T11:32:50.925Z,100.00
2022-08-19T11:35:54.468Z,100.00
2022-08-19T11:38:56.549Z,100.00
2022-08-19T11:42:25.318Z,100.00
2022-08-19T11:45:29.144Z,100.00
2022-08-19T11:48:31.283Z,100.00
2022-08-19T11:51:34.867Z,100.00
2022-08-19T11:54:37.075Z,100.00
2022-08-19T11:57:39.333Z,100.00
2022-08-19T12:00:42.305Z,100.00
2022-08-19T12:03:46.934Z,100.00
2022-08-19T12:06:49.319Z,100.00
2022-08-19T12:09:52.037Z,100.00
2022-08-19T12:12:58.870Z,100.00
2022-08-19T12:16:02.110Z,100.00
2022-08-19T12:19:06.159Z,100.00
2022-08-19T12:22:08.797Z,100.00
2022-08-19T12:25:13.077Z,100.00
2022-08-19T12:28:15.217Z,100.00
2022-08-19T12:31:17.532Z,100.00
2022-08-19T12:34:21.304Z,100.00
2022-08-19T12:37:24.030Z,100.00
2022-08-19T12:40:26.650Z,100.00
2022-08-19T12:43:31.416Z,100.00
2022-08-19T12:46:33.885Z,100.00
2022-08-19T12:49:54.325Z,100.00
2022-08-19T12:52:58.349Z,100.00
2022-08-19T12:56:01.142Z,100.00
2022-08-19T12:59:04.588Z,100.00
2022-08-19T13:02:08.587Z,100.00
2022-08-19T13:05:13.065Z,100.00
2022-08-19T13:08:15.431Z,100.00
2022-08-19T13:11:21.499Z,100.00
2022-08-19T13:14:23.627Z,100.00
2022-08-19T13:17:25.773Z,100.00
2022-08-19T13:20:28.662Z,100.00
2022-08-19T13:23:31.403Z,100.00
2022-08-19T13:26:33.752Z,100.00
2022-08-19T13:29:54.329Z,100.00
2022-08-19T13:33:17.555Z,100.00
2022-08-19T13:36:19.706Z,100.00
2022-08-19T13:39:24.157Z,100.00
2022-08-19T13:42:27.102Z,100.00
2022-08-19T13:45:31.214Z,100.00
2022-08-19T13:48:33.337Z,100.00
2022-08-19T13:51:36.025Z,100.00
2022-08-19T13:54:38.059Z,100.00
2022-08-19T13:57:40.432Z,100.00
2022-08-19T14:00:47.186Z,100.00
2022-08-19T14:03:50.353Z,100.00
2022-08-19T14:06:52.351Z,100.00
2022-08-19T14:09:54.407Z,100.00
2022-08-19T14:12:59.510Z,100.00
2022-08-19T14:16:01.743Z,100.00
2022-08-19T14:19:04.136Z,100.00
2022-08-19T14:22:06.675Z,100.00
2022-08-19T14:25:11.752Z,100.00
2022-08-19T14:28:13.945Z,100.00
2022-08-19T14:31:20.147Z,100.00
2022-08-19T14:34:23.836Z,100.00
2022-08-19T14:37:26.658Z,100.00
2022-08-19T14:40:31.561Z,100.00
2022-08-19T14:43:33.573Z,100.00
2022-08-19T14:46:35.564Z,100.00
2022-08-19T14:49:44.770Z,100.00
2022-08-19T14:52:51.988Z,100.00
2022-08-19T14:55:54.004Z,100.00
2022-08-19T14:58:58.127Z,100.00
2022-08-19T15:02:00.833Z,100.00
2022-08-19T15:05:22.939Z,100.00
2022-08-19T15:08:26.118Z,100.00
2022-08-19T15:11:29.115Z,100.00
2022-08-19T15:14:35.808Z,100.00
2022-08-19T15:17:45.410Z,100.00
2022-08-19T15:20:50.072Z,100.00
2022-08-19T15:23:52.940Z,100.00
2022-08-19T15:26:56.974Z,100.00
2022-08-19T15:30:01.496Z,100.00
2022-08-19T15:33:04.160Z,100.00
2022-08-19T15:36:07.316Z,100.00
2022-08-19T15:39:10.703Z,100.00
2022-08-19T15:42:12.872Z,100.00
2022-08-19T15:45:21.933Z,100.00
2022-08-19T15:48:24.181Z,100.00
2022-08-19T15:51:28.156Z,100.00
2022-08-19T15:54:30.146Z,100.00
2022-08-19T15:57:32.198Z,100.00
2022-08-19T16:00:52.937Z,100.00
2022-08-19T16:04:16.200Z,100.00
2022-08-19T16:07:22.953Z,100.00
2022-08-19T16:10:27.984Z,100.00
2022-08-19T16:13:32.995Z,100.00
2022-08-19T16:16:36.019Z,100.00
2022-08-19T16:19:38.853Z,100.00
2022-08-19T16:22:41.107Z,100.00
2022-08-19T16:25:43.153Z,100.00
2022-08-19T16:28:46.735Z,100.00
2022-08-19T16:31:50.840Z,100.00
2022-08-19T16:34:53.186Z,100.00
2022-08-19T16:37:55.449Z,100.00
2022-08-19T16:40:59.482Z,100.00
2022-08-19T16:44:01.540Z,100.00
2022-08-19T16:47:04.096Z,100.00
2022-08-19T16:50:07.717Z,100.00
2022-08-19T16:53:09.974Z,100.00
2022-08-19T16:56:12.721Z,100.00
2022-08-19T16:59:15.489Z,100.00
2022-08-19T18:02:10.085Z,100.00
2022-08-19T18:05:13.442Z,100.00
2022-08-19T18:08:15.508Z,100.00
2022-08-19T18:11:17.682Z,100.00
2022-08-19T18:14:19.898Z,100.00
2022-08-19T18:17:23.596Z,100.00
2022-08-19T18:20:25.642Z,100.00
2022-08-19T18:23:43.910Z,100.00
2022-08-19T18:26:48.220Z,100.00
2022-08-19T18:29:50.435Z,100.00
2022-08-19T18:32:54.074Z,100.00
2022-08-19T18:35:56.061Z,100.00
2022-08-19T18:39:16.751Z,100.00
2022-08-19T18:42:37.429Z,100.00
2022-08-19T18:45:59.312Z,100.00
2022-08-19T18:49:05.274Z,100.00
2022-08-19T18:52:07.710Z,100.00
2022-08-19T18:55:10.133Z,100.00
2022-08-19T18:58:18.649Z,100.00
2022-08-19T19:01:27.596Z,100.00
2022-08-19T19:04:34.351Z,100.00
2022-08-19T19:07:36.407Z,100.00
2022-08-19T19:10:39.056Z,100.00
2022-08-19T19:13:41.327Z,100.00
2022-08-19T19:16:46.047Z,100.00
2022-08-19T19:19:49.235Z,100.00
2022-08-19T19:22:51.283Z,100.00
2022-08-19T19:25:58.641Z,100.00
2022-08-19T19:29:01.081Z,100.00
2022-08-19T19:32:05.100Z,100.00
2022-08-19T19:35:10.837Z,100.00
2022-08-19T19:38:12.981Z,100.00
2022-08-19T19:41:17.825Z,100.00
2022-08-19T19:44:30.858Z,100.00
2022-08-19T19:47:34.995Z,100.00
2022-08-19T19:50:37.151Z,100.00
2022-08-19T19:53:40.401Z,100.00
2022-08-19T19:56:45.571Z,100.00
2022-08-19T19:59:51.659Z,100.00
2022-08-19T20:02:56.168Z,100.00
2022-08-19T20:05:59.584Z,100.00
2022-08-19T20:09:19.452Z,100.00
2022-08-19T20:12:21.986Z,100.00
2022-08-19T20:15:24.387Z,100.00
2022-08-19T20:18:26.544Z,100.00
2022-08-19T20:21:32.584Z,100.00
2022-08-19T20:24:36.485Z,100.00
2022-08-19T20:27:40.320Z,100.00
2022-08-19T20:30:46.600Z,100.00
2022-08-19T20:33:50.890Z,100.00
2022-08-19T20:36:53.043Z,100.00
2022-08-19T20:39:55.207Z,100.00
2022-08-19T20:42:57.757Z,100.00
2022-08-19T20:46:00.156Z,100.00
2022-08-19T20:49:02.230Z,100.00
2022-08-19T20:52:08.086Z,100.00
2022-08-19T20:55:12.170Z,100.00
2022-08-19T20:58:14.359Z,100.00
2022-08-19T21:01:16.607Z,100.00
2022-08-19T21:04:20.322Z,100.00
2022-08-19T21:07:22.896Z,100.00
2022-08-19T21:10:32.327Z,100.00
2022-08-19T21:13:34.741Z,100.00
2022-08-19T21:16:36.744Z,100.00
2022-08-19T21:19:38.953Z,100.00
2022-08-19T21:22:41.110Z,100.00
2022-08-19T21:25:43.612Z,100.00
2022-08-19T21:28:56.701Z,100.00
2022-08-19T21:31:58.761Z,100.00
2022-08-19T21:35:02.357Z,100.00
2022-08-19T21:38:04.462Z,100.00
2022-08-19T21:41:06.826Z,100.00
2022-08-19T21:44:08.910Z,100.00
2022-08-19T21:47:10.996Z,100.00
2022-08-19T21:50:13.222Z,100.00
2022-08-19T21:53:17.859Z,100.00
2022-08-19T21:56:20.301Z,100.00
2022-08-19T21:59:22.389Z,100.00
2022-08-19T22:02:24.730Z,100.00
2022-08-19T22:05:27.567Z,100.00
2022-08-19T22:08:30.000Z,100.00
2022-08-19T22:11:32.087Z,100.00
2022-08-19T22:14:34.137Z,100.00
2022-08-19T22:17:36.669Z,100.00
2022-08-19T22:20:38.804Z,100.00
2022-08-19T22:23:47.824Z,100.00
2022-08-19T22:26:50.187Z,100.00
2022-08-19T22:29:52.577Z,100.00
2022-08-19T22:33:01.557Z,100.00
2022-08-19T22:36:07.715Z,100.00
2022-08-19T22:39:10.425Z,100.00
2022-08-19T22:42:12.623Z,100.00
2022-08-19T22:45:17.398Z,100.00
2022-08-19T22:48:23.203Z,100.00
2022-08-19T22:51:44.101Z,100.00
2022-08-19T22:54:59.297Z,100.00
2022-08-19T22:58:01.383Z,100.00
2022-08-19T23:01:04.658Z,100.00
2022-08-19T23:04:06.888Z,100.00
2022-08-19T23:07:09.552Z,100.00
2022-08-19T23:10:13.478Z,100.00
2022-08-19T23:13:31.893Z,100.00
2022-08-19T23:16:35.279Z,100.00
2022-08-19T23:19:38.686Z,100.00
2022-08-19T23:22:49.855Z,100.00
2022-08-19T23:25:56.331Z,100.00
2022-08-19T23:29:17.085Z,100.00
2022-08-19T23:32:20.292Z,100.00
2022-08-19T23:35:23.424Z,100.00
2022-08-19T23:38:28.223Z,100.00
2022-08-19T23:41:31.191Z,100.00
2022-08-19T23:44:33.495Z,100.00
2022-08-19T23:47:36.873Z,100.00
2022-08-19T23:50:44.279Z,100.00
2022-08-19T23:53:46.315Z,100.00
2022-08-19T23:56:48.367Z,100.00
2022-08-19T23:59:50.598Z,100.00
